sensor_id;sensor_type;location;lat;lon;timestamp;pressure;altitude;pressure_sealevel;temperature;humidity
43804;BME280;29430;52.924;-2.388;2023-04-07T00:02:46;99607.88;;;5.53;87.92
43804;BME280;29430;52.924;-2.388;2023-04-07T00:07:39;99617.78;;;5.53;88.16
43804;BME280;29430;52.924;-2.388;2023-04-07T00:12:45;99600.19;;;5.50;88.41
43804;BME280;29430;52.924;-2.388;2023-04-07T00:17:37;99598.81;;;5.40;87.91
43804;BME280;29430;52.924;-2.388;2023-04-07T00:22:29;99600.75;;;5.31;88.04
43804;BME280;29430;52.924;-2.388;2023-04-07T00:27:20;99605.97;;;5.17;88.68
43804;BME280;29430;52.924;-2.388;2023-04-07T00:32:13;99611.59;;;5.08;89.37
43804;BME280;29430;52.924;-2.388;2023-04-07T00:37:05;99627.63;;;5.01;89.95
43804;BME280;29430;52.924;-2.388;2023-04-07T00:41:56;99618.75;;;5.00;90.26
43804;BME280;29430;52.924;-2.388;2023-04-07T00:46:48;99615.38;;;4.98;89.64
43804;BME280;29430;52.924;-2.388;2023-04-07T00:51:40;99623.19;;;4.93;89.55
43804;BME280;29430;52.924;-2.388;2023-04-07T00:56:32;99619.19;;;4.89;90.35
43804;BME280;29430;52.924;-2.388;2023-04-07T01:01:34;99598.22;;;4.84;91.34
43804;BME280;29430;52.924;-2.388;2023-04-07T01:06:32;99587.28;;;4.86;92.16
43804;BME280;29430;52.924;-2.388;2023-04-07T01:11:30;99579.41;;;4.84;92.60
43804;BME280;29430;52.924;-2.388;2023-04-07T01:16:29;99586.47;;;4.86;92.85
43804;BME280;29430;52.924;-2.388;2023-04-07T01:21:25;99576.72;;;4.84;92.88
43804;BME280;29430;52.924;-2.388;2023-04-07T01:26:29;99591.47;;;4.89;94.22
43804;BME280;29430;52.924;-2.388;2023-04-07T01:31:21;99607.78;;;4.87;93.59
43804;BME280;29430;52.924;-2.388;2023-04-07T01:36:14;99594.06;;;4.82;94.15
43804;BME280;29430;52.924;-2.388;2023-04-07T01:41:07;99598.59;;;4.81;95.07
43804;BME280;29430;52.924;-2.388;2023-04-07T01:46:01;99588.56;;;4.75;95.29
43804;BME280;29430;52.924;-2.388;2023-04-07T01:50:53;99592.31;;;4.74;94.87
43804;BME280;29430;52.924;-2.388;2023-04-07T01:55:46;99587.75;;;4.75;95.15
43804;BME280;29430;52.924;-2.388;2023-04-07T02:00:37;99588.94;;;4.72;95.12
43804;BME280;29430;52.924;-2.388;2023-04-07T02:05:30;99598.59;;;4.66;94.92
43804;BME280;29430;52.924;-2.388;2023-04-07T02:10:24;99597.47;;;4.61;94.92
43804;BME280;29430;52.924;-2.388;2023-04-07T02:15:18;99603.56;;;4.55;94.42
43804;BME280;29430;52.924;-2.388;2023-04-07T02:20:11;99588.34;;;4.47;94.82
43804;BME280;29430;52.924;-2.388;2023-04-07T02:30:17;99588.66;;;4.29;95.89
43804;BME280;29430;52.924;-2.388;2023-04-07T02:35:09;99594.56;;;4.24;96.12
43804;BME280;29430;52.924;-2.388;2023-04-07T02:40:03;99592.78;;;4.17;96.41
43804;BME280;29430;52.924;-2.388;2023-04-07T02:44:55;99592.31;;;4.13;96.83
43804;BME280;29430;52.924;-2.388;2023-04-07T02:49:47;99595.53;;;4.08;97.65
43804;BME280;29430;52.924;-2.388;2023-04-07T02:54:38;99595.25;;;4.03;98.12
43804;BME280;29430;52.924;-2.388;2023-04-07T02:59:30;99592.03;;;4.08;98.54
43804;BME280;29430;52.924;-2.388;2023-04-07T03:04:21;99597.84;;;4.11;98.71
43804;BME280;29430;52.924;-2.388;2023-04-07T03:09:13;99603.03;;;4.13;98.62
43804;BME280;29430;52.924;-2.388;2023-04-07T03:14:05;99595.34;;;4.10;98.37
43804;BME280;29430;52.924;-2.388;2023-04-07T03:18:57;99591.66;;;4.11;99.03
43804;BME280;29430;52.924;-2.388;2023-04-07T03:23:49;99580.06;;;4.10;99.66
43804;BME280;29430;52.924;-2.388;2023-04-07T03:28:40;99581.75;;;4.11;100.00
43804;BME280;29430;52.924;-2.388;2023-04-07T03:33:32;99585.06;;;4.13;100.00
43804;BME280;29430;52.924;-2.388;2023-04-07T03:38:25;99599.00;;;4.17;100.00
43804;BME280;29430;52.924;-2.388;2023-04-07T03:43:16;99595.28;;;4.18;100.00
43804;BME280;29430;52.924;-2.388;2023-04-07T03:48:08;99600.00;;;4.16;100.00
43804;BME280;29430;52.924;-2.388;2023-04-07T03:53:03;99610.09;;;4.14;100.00
43804;BME280;29430;52.924;-2.388;2023-04-07T03:57:54;99615.28;;;4.16;100.00
43804;BME280;29430;52.924;-2.388;2023-04-07T04:02:46;99617.78;;;4.17;99.78
43804;BME280;29430;52.924;-2.388;2023-04-07T04:07:38;99627.03;;;4.15;99.56
43804;BME280;29430;52.924;-2.388;2023-04-07T04:12:30;99628.19;;;4.12;99.16
43804;BME280;29430;52.924;-2.388;2023-04-07T04:17:21;99622.00;;;4.11;99.37
43804;BME280;29430;52.924;-2.388;2023-04-07T04:22:13;99628.19;;;4.12;99.00
43804;BME280;29430;52.924;-2.388;2023-04-07T04:27:05;99631.91;;;4.11;98.50
43804;BME280;29430;52.924;-2.388;2023-04-07T04:31:56;99630.41;;;4.08;98.27
43804;BME280;29430;52.924;-2.388;2023-04-07T04:36:48;99627.91;;;4.07;98.20
43804;BME280;29430;52.924;-2.388;2023-04-07T04:41:40;99622.91;;;4.04;97.79
43804;BME280;29430;52.924;-2.388;2023-04-07T04:46:32;99636.03;;;3.99;97.36
43804;BME280;29430;52.924;-2.388;2023-04-07T04:51:23;99645.06;;;3.98;96.90
43804;BME280;29430;52.924;-2.388;2023-04-07T04:56:16;99648.63;;;3.90;96.60
43804;BME280;29430;52.924;-2.388;2023-04-07T05:01:08;99648.88;;;3.80;96.46
43804;BME280;29430;52.924;-2.388;2023-04-07T05:05:59;99658.78;;;3.71;96.07
43804;BME280;29430;52.924;-2.388;2023-04-07T05:10:51;99661.00;;;3.68;96.22
43804;BME280;29430;52.924;-2.388;2023-04-07T05:15:43;99653.81;;;3.60;96.65
43804;BME280;29430;52.924;-2.388;2023-04-07T05:20:34;99656.69;;;3.58;97.69
43804;BME280;29430;52.924;-2.388;2023-04-07T05:25:26;99660.72;;;3.54;97.38
43804;BME280;29430;52.924;-2.388;2023-04-07T05:30:18;99666.06;;;3.54;97.94
43804;BME280;29430;52.924;-2.388;2023-04-07T05:35:10;99674.94;;;3.55;97.83
43804;BME280;29430;52.924;-2.388;2023-04-07T05:40:02;99677.97;;;3.52;98.05
43804;BME280;29430;52.924;-2.388;2023-04-07T05:44:55;99681.84;;;3.49;98.03
43804;BME280;29430;52.924;-2.388;2023-04-07T05:49:46;99694.91;;;3.52;98.74
43804;BME280;29430;52.924;-2.388;2023-04-07T05:54:38;99697.91;;;3.57;99.18
43804;BME280;29430;52.924;-2.388;2023-04-07T05:59:33;99706.25;;;3.63;99.54
43804;BME280;29430;52.924;-2.388;2023-04-07T06:04:25;99708.78;;;3.64;98.51
43804;BME280;29430;52.924;-2.388;2023-04-07T06:09:17;99708.06;;;3.70;99.55
43804;BME280;29430;52.924;-2.388;2023-04-07T06:14:08;99715.84;;;3.97;100.00
43804;BME280;29430;52.924;-2.388;2023-04-07T06:19:00;99716.06;;;4.26;100.00
43804;BME280;29430;52.924;-2.388;2023-04-07T06:23:52;99710.88;;;4.71;100.00
43804;BME280;29430;52.924;-2.388;2023-04-07T06:28:43;99719.09;;;5.46;100.00
43804;BME280;29430;52.924;-2.388;2023-04-07T06:33:35;99727.16;;;6.20;98.85
43804;BME280;29430;52.924;-2.388;2023-04-07T06:38:27;99735.03;;;7.02;95.81
43804;BME280;29430;52.924;-2.388;2023-04-07T06:43:18;99728.94;;;7.84;92.64
43804;BME280;29430;52.924;-2.388;2023-04-07T06:48:10;99738.19;;;8.52;87.17
43804;BME280;29430;52.924;-2.388;2023-04-07T06:53:02;99742.03;;;9.11;84.83
43804;BME280;29430;52.924;-2.388;2023-04-07T06:57:53;99745.94;;;9.75;82.24
43804;BME280;29430;52.924;-2.388;2023-04-07T07:02:45;99742.38;;;10.47;81.56
43804;BME280;29430;52.924;-2.388;2023-04-07T07:07:38;99747.72;;;11.24;78.20
43804;BME280;29430;52.924;-2.388;2023-04-07T07:12:30;99756.16;;;12.03;71.49
43804;BME280;29430;52.924;-2.388;2023-04-07T07:17:22;99762.19;;;12.61;71.19
43804;BME280;29430;52.924;-2.388;2023-04-07T07:22:14;99757.53;;;13.34;65.77
43804;BME280;29430;52.924;-2.388;2023-04-07T07:27:06;99763.38;;;13.96;63.70
43804;BME280;29430;52.924;-2.388;2023-04-07T07:31:57;99754.44;;;14.54;59.74
43804;BME280;29430;52.924;-2.388;2023-04-07T07:36:49;99751.56;;;14.72;58.54
43804;BME280;29430;52.924;-2.388;2023-04-07T07:41:41;99755.50;;;15.10;58.63
43804;BME280;29430;52.924;-2.388;2023-04-07T07:46:33;99764.69;;;15.72;55.29
43804;BME280;29430;52.924;-2.388;2023-04-07T07:51:24;99771.41;;;15.81;51.77
43804;BME280;29430;52.924;-2.388;2023-04-07T07:56:16;99766.38;;;15.39;52.44
43804;BME280;29430;52.924;-2.388;2023-04-07T08:01:07;99776.09;;;15.01;56.07
43804;BME280;29430;52.924;-2.388;2023-04-07T08:05:59;99768.66;;;15.13;56.72
43804;BME280;29430;52.924;-2.388;2023-04-07T08:10:51;99768.44;;;15.49;56.37
43804;BME280;29430;52.924;-2.388;2023-04-07T08:15:43;99774.03;;;16.10;56.02
43804;BME280;29430;52.924;-2.388;2023-04-07T08:20:34;99775.41;;;16.57;51.68
43804;BME280;29430;52.924;-2.388;2023-04-07T08:25:27;99771.19;;;16.71;50.49
43804;BME280;29430;52.924;-2.388;2023-04-07T08:30:19;99783.25;;;17.20;52.60
43804;BME280;29430;52.924;-2.388;2023-04-07T08:35:12;99776.97;;;17.24;50.50
43804;BME280;29430;52.924;-2.388;2023-04-07T08:40:04;99790.63;;;16.70;50.74
43804;BME280;29430;52.924;-2.388;2023-04-07T08:45:01;99793.94;;;16.05;52.78
43804;BME280;29430;52.924;-2.388;2023-04-07T08:49:56;99792.41;;;16.15;55.06
43804;BME280;29430;52.924;-2.388;2023-04-07T08:54:48;99794.00;;;16.77;53.01
43804;BME280;29430;52.924;-2.388;2023-04-07T08:59:41;99785.47;;;17.23;51.35
43804;BME280;29430;52.924;-2.388;2023-04-07T09:04:35;99789.13;;;17.33;50.68
43804;BME280;29430;52.924;-2.388;2023-04-07T09:09:28;99789.88;;;17.94;49.84
43804;BME280;29430;52.924;-2.388;2023-04-07T09:14:20;99789.91;;;18.57;47.73
43804;BME280;29430;52.924;-2.388;2023-04-07T09:19:12;99775.75;;;19.01;46.63
43804;BME280;29430;52.924;-2.388;2023-04-07T09:24:25;99782.34;;;18.95;44.48
43804;BME280;29430;52.924;-2.388;2023-04-07T09:29:19;99786.84;;;18.43;43.18
43804;BME280;29430;52.924;-2.388;2023-04-07T09:34:32;99796.34;;;18.25;45.71
43804;BME280;29430;52.924;-2.388;2023-04-07T09:39:25;99796.88;;;18.80;45.86
43804;BME280;29430;52.924;-2.388;2023-04-07T09:44:21;99786.53;;;19.44;42.47
43804;BME280;29430;52.924;-2.388;2023-04-07T09:49:13;99779.06;;;19.75;44.23
43804;BME280;29430;52.924;-2.388;2023-04-07T09:54:05;99776.44;;;20.46;44.13
43804;BME280;29430;52.924;-2.388;2023-04-07T09:58:58;99782.28;;;20.94;42.19
43804;BME280;29430;52.924;-2.388;2023-04-07T10:03:50;99785.34;;;21.27;39.93
43804;BME280;29430;52.924;-2.388;2023-04-07T10:08:43;99778.88;;;21.07;39.38
43804;BME280;29430;52.924;-2.388;2023-04-07T10:13:36;99771.75;;;21.01;39.32
43804;BME280;29430;52.924;-2.388;2023-04-07T10:18:30;99777.44;;;21.15;38.87
43804;BME280;29430;52.924;-2.388;2023-04-07T10:24:06;99771.97;;;21.50;40.04
43804;BME280;29430;52.924;-2.388;2023-04-07T10:29:09;99774.66;;;21.60;38.68
43804;BME280;29430;52.924;-2.388;2023-04-07T10:34:02;99781.34;;;21.78;37.01
43804;BME280;29430;52.924;-2.388;2023-04-07T10:43:57;99781.31;;;21.49;32.62
43804;BME280;29430;52.924;-2.388;2023-04-07T10:49:08;99781.06;;;21.50;34.11
43804;BME280;29430;52.924;-2.388;2023-04-07T10:59:13;99786.28;;;21.52;35.14
43804;BME280;29430;52.924;-2.388;2023-04-07T11:04:05;99774.50;;;21.75;32.43
43804;BME280;29430;52.924;-2.388;2023-04-07T11:08:59;99780.19;;;21.55;34.70
43804;BME280;29430;52.924;-2.388;2023-04-07T11:13:51;99773.66;;;21.75;35.02
43804;BME280;29430;52.924;-2.388;2023-04-07T11:18:43;99786.22;;;21.91;34.28
43804;BME280;29430;52.924;-2.388;2023-04-07T11:23:39;99771.78;;;21.70;30.07
43804;BME280;29430;52.924;-2.388;2023-04-07T11:28:31;99773.63;;;21.80;32.59
43804;BME280;29430;52.924;-2.388;2023-04-07T11:33:26;99771.91;;;21.84;32.30
43804;BME280;29430;52.924;-2.388;2023-04-07T11:38:18;99757.13;;;21.99;30.67
43804;BME280;29430;52.924;-2.388;2023-04-07T11:48:30;99758.25;;;21.69;32.24
43804;BME280;29430;52.924;-2.388;2023-04-07T11:58:19;99758.31;;;21.63;34.38
43804;BME280;29430;52.924;-2.388;2023-04-07T12:03:11;99752.44;;;21.70;33.81
43804;BME280;29430;52.924;-2.388;2023-04-07T12:08:06;99747.56;;;21.62;34.26
43804;BME280;29430;52.924;-2.388;2023-04-07T12:12:58;99759.09;;;21.69;33.84
43804;BME280;29430;52.924;-2.388;2023-04-07T12:17:50;99745.19;;;21.50;31.41
43804;BME280;29430;52.924;-2.388;2023-04-07T12:22:42;99741.53;;;21.20;32.21
43804;BME280;29430;52.924;-2.388;2023-04-07T12:27:34;99740.13;;;20.88;32.43
43804;BME280;29430;52.924;-2.388;2023-04-07T12:32:33;99743.91;;;20.53;34.20
43804;BME280;29430;52.924;-2.388;2023-04-07T12:37:26;99744.53;;;20.34;34.45
43804;BME280;29430;52.924;-2.388;2023-04-07T12:42:17;99750.09;;;20.19;34.34
43804;BME280;29430;52.924;-2.388;2023-04-07T12:47:09;99746.63;;;19.77;34.00
43804;BME280;29430;52.924;-2.388;2023-04-07T12:52:02;99747.44;;;19.52;34.03
43804;BME280;29430;52.924;-2.388;2023-04-07T12:56:54;99738.66;;;19.04;34.09
43804;BME280;29430;52.924;-2.388;2023-04-07T13:01:47;99744.84;;;18.48;33.79
43804;BME280;29430;52.924;-2.388;2023-04-07T13:06:41;99752.72;;;18.29;36.24
43804;BME280;29430;52.924;-2.388;2023-04-07T13:11:33;99757.06;;;18.19;34.66
43804;BME280;29430;52.924;-2.388;2023-04-07T13:16:24;99746.41;;;17.80;34.11
43804;BME280;29430;52.924;-2.388;2023-04-07T13:21:16;99750.53;;;17.45;34.84
43804;BME280;29430;52.924;-2.388;2023-04-07T13:26:11;99748.38;;;17.15;37.79
43804;BME280;29430;52.924;-2.388;2023-04-07T13:31:02;99759.41;;;17.25;36.88
43804;BME280;29430;52.924;-2.388;2023-04-07T13:35:54;99745.56;;;17.42;37.87
43804;BME280;29430;52.924;-2.388;2023-04-07T13:40:46;99756.00;;;17.40;37.46
43804;BME280;29430;52.924;-2.388;2023-04-07T13:45:39;99748.81;;;17.34;37.92
43804;BME280;29430;52.924;-2.388;2023-04-07T13:50:35;99739.19;;;17.31;37.75
43804;BME280;29430;52.924;-2.388;2023-04-07T13:55:27;99748.53;;;17.30;37.31
43804;BME280;29430;52.924;-2.388;2023-04-07T14:00:19;99734.75;;;17.25;38.08
43804;BME280;29430;52.924;-2.388;2023-04-07T14:05:11;99734.19;;;17.23;37.44
43804;BME280;29430;52.924;-2.388;2023-04-07T14:10:03;99733.84;;;17.14;38.14
43804;BME280;29430;52.924;-2.388;2023-04-07T14:14:55;99727.25;;;17.10;38.70
43804;BME280;29430;52.924;-2.388;2023-04-07T14:19:47;99724.09;;;16.96;38.60
43804;BME280;29430;52.924;-2.388;2023-04-07T14:24:39;99730.66;;;16.95;38.37
43804;BME280;29430;52.924;-2.388;2023-04-07T14:29:30;99725.16;;;16.90;38.58
43804;BME280;29430;52.924;-2.388;2023-04-07T14:34:22;99731.38;;;16.86;40.14
43804;BME280;29430;52.924;-2.388;2023-04-07T14:39:14;99727.03;;;16.90;39.54
43804;BME280;29430;52.924;-2.388;2023-04-07T14:44:05;99723.47;;;16.89;38.12
43804;BME280;29430;52.924;-2.388;2023-04-07T14:48:57;99725.56;;;16.82;37.80
43804;BME280;29430;52.924;-2.388;2023-04-07T14:53:49;99720.25;;;16.70;39.11
43804;BME280;29430;52.924;-2.388;2023-04-07T14:58:46;99720.69;;;16.62;36.64
43804;BME280;29430;52.924;-2.388;2023-04-07T15:03:37;99726.66;;;16.54;37.16
43804;BME280;29430;52.924;-2.388;2023-04-07T15:08:29;99734.31;;;16.52;37.63
43804;BME280;29430;52.924;-2.388;2023-04-07T15:13:21;99733.69;;;16.22;36.21
43804;BME280;29430;52.924;-2.388;2023-04-07T15:18:13;99729.38;;;15.87;37.60
43804;BME280;29430;52.924;-2.388;2023-04-07T15:23:04;99719.31;;;15.71;38.28
43804;BME280;29430;52.924;-2.388;2023-04-07T15:27:56;99717.88;;;15.68;36.79
43804;BME280;29430;52.924;-2.388;2023-04-07T15:33:02;99720.97;;;15.55;37.95
43804;BME280;29430;52.924;-2.388;2023-04-07T15:37:54;99709.28;;;15.60;38.44
43804;BME280;29430;52.924;-2.388;2023-04-07T15:42:46;99703.56;;;15.61;38.99
43804;BME280;29430;52.924;-2.388;2023-04-07T15:47:38;99712.75;;;15.55;38.17
43804;BME280;29430;52.924;-2.388;2023-04-07T15:52:29;99731.50;;;15.46;38.49
43804;BME280;29430;52.924;-2.388;2023-04-07T15:57:21;99730.84;;;15.39;38.25
43804;BME280;29430;52.924;-2.388;2023-04-07T16:02:14;99719.66;;;15.24;36.62
43804;BME280;29430;52.924;-2.388;2023-04-07T16:07:06;99727.53;;;15.20;37.88
43804;BME280;29430;52.924;-2.388;2023-04-07T16:11:57;99730.09;;;15.10;38.52
43804;BME280;29430;52.924;-2.388;2023-04-07T16:16:50;99728.44;;;15.09;37.95
43804;BME280;29430;52.924;-2.388;2023-04-07T16:21:44;99720.22;;;15.09;38.44
43804;BME280;29430;52.924;-2.388;2023-04-07T16:26:36;99723.56;;;15.11;38.53
43804;BME280;29430;52.924;-2.388;2023-04-07T16:31:28;99732.41;;;15.18;38.57
43804;BME280;29430;52.924;-2.388;2023-04-07T16:36:20;99728.84;;;15.17;38.68
43804;BME280;29430;52.924;-2.388;2023-04-07T16:41:11;99727.94;;;15.12;37.62
43804;BME280;29430;52.924;-2.388;2023-04-07T16:46:03;99725.69;;;15.09;37.28
43804;BME280;29430;52.924;-2.388;2023-04-07T16:50:56;99726.38;;;14.99;38.12
43804;BME280;29430;52.924;-2.388;2023-04-07T16:55:47;99727.59;;;14.91;38.37
43804;BME280;29430;52.924;-2.388;2023-04-07T17:00:39;99723.69;;;14.87;37.61
43804;BME280;29430;52.924;-2.388;2023-04-07T17:05:31;99730.97;;;14.81;38.78
43804;BME280;29430;52.924;-2.388;2023-04-07T17:10:22;99729.56;;;14.79;38.36
43804;BME280;29430;52.924;-2.388;2023-04-07T17:15:14;99731.97;;;14.75;38.61
43804;BME280;29430;52.924;-2.388;2023-04-07T17:20:06;99739.22;;;14.70;38.88
43804;BME280;29430;52.924;-2.388;2023-04-07T17:24:58;99739.63;;;14.61;38.74
43804;BME280;29430;52.924;-2.388;2023-04-07T17:29:50;99737.72;;;14.50;38.36
43804;BME280;29430;52.924;-2.388;2023-04-07T17:34:41;99739.78;;;14.43;38.63
43804;BME280;29430;52.924;-2.388;2023-04-07T17:39:33;99739.91;;;14.36;38.34
43804;BME280;29430;52.924;-2.388;2023-04-07T17:44:25;99743.84;;;14.28;38.44
43804;BME280;29430;52.924;-2.388;2023-04-07T17:49:16;99751.22;;;14.16;39.16
43804;BME280;29430;52.924;-2.388;2023-04-07T17:54:08;99762.84;;;14.11;38.97
43804;BME280;29430;52.924;-2.388;2023-04-07T17:59:00;99753.50;;;14.07;39.34
43804;BME280;29430;52.924;-2.388;2023-04-07T18:03:51;99761.22;;;13.99;38.91
43804;BME280;29430;52.924;-2.388;2023-04-07T18:08:45;99755.06;;;13.91;38.92
43804;BME280;29430;52.924;-2.388;2023-04-07T18:13:37;99769.16;;;13.88;39.48
43804;BME280;29430;52.924;-2.388;2023-04-07T18:18:29;99779.72;;;13.85;39.54
43804;BME280;29430;52.924;-2.388;2023-04-07T18:23:21;99779.25;;;13.76;39.45
43804;BME280;29430;52.924;-2.388;2023-04-07T18:28:12;99786.59;;;13.64;39.76
43804;BME280;29430;52.924;-2.388;2023-04-07T18:33:04;99795.13;;;13.55;39.89
43804;BME280;29430;52.924;-2.388;2023-04-07T18:37:56;99790.50;;;13.44;40.16
43804;BME280;29430;52.924;-2.388;2023-04-07T18:42:50;99798.41;;;13.34;41.11
43804;BME280;29430;52.924;-2.388;2023-04-07T18:47:42;99807.94;;;13.24;41.49
43804;BME280;29430;52.924;-2.388;2023-04-07T18:52:33;99806.28;;;13.12;41.18
43804;BME280;29430;52.924;-2.388;2023-04-07T18:57:25;99798.63;;;12.90;42.14
43804;BME280;29430;52.924;-2.388;2023-04-07T19:02:17;99816.41;;;12.74;44.36
43804;BME280;29430;52.924;-2.388;2023-04-07T19:07:09;99811.63;;;12.58;45.69
43804;BME280;29430;52.924;-2.388;2023-04-07T19:12:01;99818.34;;;12.36;45.85
43804;BME280;29430;52.924;-2.388;2023-04-07T19:16:52;99824.81;;;12.17;46.30
43804;BME280;29430;52.924;-2.388;2023-04-07T19:21:44;99829.41;;;11.98;46.98
43804;BME280;29430;52.924;-2.388;2023-04-07T19:26:36;99835.84;;;11.78;47.80
43804;BME280;29430;52.924;-2.388;2023-04-07T19:31:28;99845.03;;;11.52;47.76
43804;BME280;29430;52.924;-2.388;2023-04-07T19:36:21;99850.59;;;11.32;48.45
43804;BME280;29430;52.924;-2.388;2023-04-07T19:41:12;99856.81;;;11.14;48.75
43804;BME280;29430;52.924;-2.388;2023-04-07T19:46:04;99857.53;;;10.96;49.34
43804;BME280;29430;52.924;-2.388;2023-04-07T19:50:56;99863.22;;;10.81;49.49
43804;BME280;29430;52.924;-2.388;2023-04-07T19:55:48;99862.25;;;10.62;49.49
43804;BME280;29430;52.924;-2.388;2023-04-07T20:00:40;99861.91;;;10.45;50.46
43804;BME280;29430;52.924;-2.388;2023-04-07T20:05:34;99859.44;;;10.30;50.56
43804;BME280;29430;52.924;-2.388;2023-04-07T20:10:27;99861.97;;;10.12;50.53
43804;BME280;29430;52.924;-2.388;2023-04-07T20:15:19;99874.06;;;9.96;50.44
43804;BME280;29430;52.924;-2.388;2023-04-07T20:20:12;99868.47;;;9.84;50.60
43804;BME280;29430;52.924;-2.388;2023-04-07T20:25:05;99877.84;;;9.75;50.98
43804;BME280;29430;52.924;-2.388;2023-04-07T20:29:57;99879.28;;;9.64;51.38
43804;BME280;29430;52.924;-2.388;2023-04-07T20:34:48;99881.38;;;9.55;50.67
43804;BME280;29430;52.924;-2.388;2023-04-07T20:39:43;99881.13;;;9.43;50.50
43804;BME280;29430;52.924;-2.388;2023-04-07T20:44:36;99886.53;;;9.37;51.15
43804;BME280;29430;52.924;-2.388;2023-04-07T20:49:27;99896.72;;;9.28;51.62
43804;BME280;29430;52.924;-2.388;2023-04-07T20:54:19;99888.19;;;9.18;50.47
43804;BME280;29430;52.924;-2.388;2023-04-07T20:59:11;99889.63;;;9.07;50.52
43804;BME280;29430;52.924;-2.388;2023-04-07T21:04:03;99902.28;;;9.00;50.06
43804;BME280;29430;52.924;-2.388;2023-04-07T21:08:55;99905.97;;;8.85;49.94
43804;BME280;29430;52.924;-2.388;2023-04-07T21:13:46;99909.00;;;8.69;48.99
43804;BME280;29430;52.924;-2.388;2023-04-07T21:18:38;99909.59;;;8.57;48.54
43804;BME280;29430;52.924;-2.388;2023-04-07T21:23:30;99909.72;;;8.49;47.66
43804;BME280;29430;52.924;-2.388;2023-04-07T21:28:22;99917.78;;;8.42;47.64
43804;BME280;29430;52.924;-2.388;2023-04-07T21:33:13;99918.16;;;8.33;48.04
43804;BME280;29430;52.924;-2.388;2023-04-07T21:38:05;99919.72;;;8.20;48.12
43804;BME280;29430;52.924;-2.388;2023-04-07T21:42:57;99919.44;;;8.09;48.19
43804;BME280;29430;52.924;-2.388;2023-04-07T21:47:49;99918.53;;;8.01;47.67
43804;BME280;29430;52.924;-2.388;2023-04-07T21:52:40;99916.41;;;7.97;47.15
43804;BME280;29430;52.924;-2.388;2023-04-07T21:57:33;99923.47;;;7.91;47.17
43804;BME280;29430;52.924;-2.388;2023-04-07T22:02:24;99918.44;;;7.88;47.44
43804;BME280;29430;52.924;-2.388;2023-04-07T22:07:16;99920.69;;;7.84;47.17
43804;BME280;29430;52.924;-2.388;2023-04-07T22:12:08;99925.63;;;7.81;48.04
43804;BME280;29430;52.924;-2.388;2023-04-07T22:17:00;99924.09;;;7.71;47.86
43804;BME280;29430;52.924;-2.388;2023-04-07T22:21:52;99916.59;;;7.67;48.21
43804;BME280;29430;52.924;-2.388;2023-04-07T22:26:44;99920.88;;;7.61;48.59
43804;BME280;29430;52.924;-2.388;2023-04-07T22:31:36;99919.34;;;7.52;48.55
43804;BME280;29430;52.924;-2.388;2023-04-07T22:36:28;99926.38;;;7.46;48.38
43804;BME280;29430;52.924;-2.388;2023-04-07T22:41:20;99928.41;;;7.44;48.64
43804;BME280;29430;52.924;-2.388;2023-04-07T22:46:12;99928.53;;;7.36;49.69
43804;BME280;29430;52.924;-2.388;2023-04-07T22:51:06;99919.16;;;7.32;50.16
43804;BME280;29430;52.924;-2.388;2023-04-07T22:55:57;99924.53;;;7.32;50.29
43804;BME280;29430;52.924;-2.388;2023-04-07T23:00:49;99929.50;;;7.28;50.47
43804;BME280;29430;52.924;-2.388;2023-04-07T23:05:41;99942.06;;;7.21;51.41
43804;BME280;29430;52.924;-2.388;2023-04-07T23:10:33;99934.09;;;7.13;51.72
43804;BME280;29430;52.924;-2.388;2023-04-07T23:15:24;99935.50;;;7.09;52.67
43804;BME280;29430;52.924;-2.388;2023-04-07T23:20:17;99938.06;;;6.95;53.54
43804;BME280;29430;52.924;-2.388;2023-04-07T23:25:09;99941.31;;;6.91;53.69
43804;BME280;29430;52.924;-2.388;2023-04-07T23:30:01;99940.19;;;6.85;53.96
43804;BME280;29430;52.924;-2.388;2023-04-07T23:34:53;99935.00;;;6.84;54.65
43804;BME280;29430;52.924;-2.388;2023-04-07T23:39:46;99931.53;;;6.90;54.77
43804;BME280;29430;52.924;-2.388;2023-04-07T23:44:38;99944.00;;;6.91;55.16
43804;BME280;29430;52.924;-2.388;2023-04-07T23:49:30;99935.91;;;6.91;55.43
43804;BME280;29430;52.924;-2.388;2023-04-07T23:54:23;99940.84;;;6.87;55.08
43804;BME280;29430;52.924;-2.388;2023-04-07T23:59:17;99944.38;;;6.88;55.37
